Time;durP1;ratioP1;P1;durP2;ratioP2;P2;SDS_P1;SDS_P2;PMS_P1;PMS_P2;Temp;Humidity;BMP_temperature;BMP_pressure;BME280_temperature;BME280_humidity;BME280_pressure;Samples;Min_cycle;Max_cycle;Signal;HPM_P1;HPM_P2
2023/08/24 00:01:32;;;;;;;0.47;0.43;;;;;;;24.64;100.00;100264.63;4977355;28;20100;-75
2023/08/24 00:03:57;;;;;;;0.88;0.52;;;;;;;25.10;100.00;100347.72;4979945;28;20062;-74
2023/08/24 00:06:23;;;;;;;0.82;0.70;;;;;;;25.23;100.00;100380.91;4987027;28;20043;-74
2023/08/24 00:08:48;;;;;;;2.90;2.65;;;;;;;24.66;100.00;100292.22;4977068;28;20055;-74
2023/08/24 00:11:14;;;;;;;5.30;2.25;;;;;;;24.56;100.00;100272.25;4982360;28;20154;-74
2023/08/24 00:13:46;;;;;;;1.40;1.30;;;;;;;24.67;100.00;100298.44;4985808;28;20069;-75
2023/08/24 00:16:11;;;;;;;1.02;0.80;;;;;;;24.83;100.00;100326.09;4980933;28;20050;-75
2023/08/24 00:18:37;;;;;;;2.80;2.60;;;;;;;24.92;100.00;100371.16;4984967;28;20089;-74
2023/08/24 00:21:02;;;;;;;0.98;0.75;;;;;;;24.97;100.00;100389.69;4986797;28;20054;-75
2023/08/24 00:23:28;;;;;;;0.77;0.77;;;;;;;24.25;100.00;100286.63;4988064;28;20419;-74
2023/08/24 00:25:54;;;;;;;0.80;0.60;;;;;;;24.03;100.00;100279.84;4988761;28;20889;-75
2023/08/24 00:28:19;;;;;;;2.58;1.88;;;;;;;24.49;100.00;100363.00;4988965;28;20525;-74
2023/08/24 00:30:45;;;;;;;1.35;1.23;;;;;;;24.55;100.00;100378.72;4986584;28;20494;-74
2023/08/24 00:33:10;;;;;;;3.38;2.03;;;;;;;24.51;100.00;100377.16;4992105;28;20693;-74
2023/08/24 00:35:36;;;;;;;1.48;0.95;;;;;;;24.52;100.00;100370.00;4988797;28;20069;-74
2023/08/24 00:38:02;;;;;;;1.70;1.48;;;;;;;24.48;100.00;100388.09;4988565;28;20452;-73
2023/08/24 00:40:27;;;;;;;2.17;1.98;;;;;;;23.98;100.00;100312.25;4987428;28;20074;-74
2023/08/24 00:42:53;;;;;;;1.65;1.55;;;;;;;24.35;100.00;100369.13;4986338;28;20057;-75
2023/08/24 00:45:19;;;;;;;1.23;1.13;;;;;;;24.33;100.00;100380.91;4987112;28;20054;-73
2023/08/24 00:47:47;;;;;;;1.13;0.82;;;;;;;24.35;100.00;100379.88;4986458;28;20147;-73
2023/08/24 00:50:15;;;;;;;2.13;1.67;;;;;;;23.47;100.00;100214.25;4987108;28;20033;-74
2023/08/24 00:52:42;;;;;;;1.17;1.10;;;;;;;24.32;100.00;100385.38;4985757;28;20074;-74
2023/08/24 00:55:08;;;;;;;1.92;1.83;;;;;;;24.14;100.00;100346.22;4986744;28;20136;-75
2023/08/24 00:57:36;;;;;;;1.23;1.13;;;;;;;23.88;100.00;100296.78;4981376;28;20133;-74
2023/08/24 01:00:11;;;;;;;2.03;1.92;;;;;;;24.23;100.00;100370.72;4986784;28;20039;-75
2023/08/24 01:02:40;;;;;;;5.35;3.20;;;;;;;24.16;100.00;100358.63;4986147;28;20039;-75
2023/08/24 01:05:06;;;;;;;2.33;1.95;;;;;;;24.31;100.00;100380.13;4987738;28;20042;-76
2023/08/24 01:07:38;;;;;;;1.88;1.35;;;;;;;24.33;100.00;100387.13;4988273;28;20034;-74
2023/08/24 01:10:06;;;;;;;2.40;1.88;;;;;;;24.19;100.00;100370.97;4986128;28;20074;-75
2023/08/24 01:13:02;;;;;;;3.63;1.90;;;;;;;24.20;100.00;100360.13;4984886;28;20061;-74
2023/08/24 01:15:48;;;;;;;1.63;1.52;;;;;;;24.36;100.00;100383.41;4986256;28;20046;-74
2023/08/24 01:18:16;;;;;;;1.73;0.85;;;;;;;24.19;100.00;100338.78;4986328;28;21274;-74
2023/08/24 01:20:43;;;;;;;2.30;2.15;;;;;;;24.33;100.00;100359.47;4986701;28;20045;-74
2023/08/24 01:23:36;;;;;;;1.30;1.20;;;;;;;24.41;100.00;100370.59;4980860;28;20034;-75
2023/08/24 01:26:11;;;;;;;2.27;2.17;;;;;;;23.99;100.00;100299.72;4959761;28;20050;-75
2023/08/24 01:28:38;;;;;;;2.47;1.77;;;;;;;23.84;100.00;100269.31;4977384;28;20444;-75
2023/08/24 01:31:05;;;;;;;0.43;0.43;;;;;;;23.94;100.00;100283.91;5000445;28;20137;-74
2023/08/24 01:33:30;;;;;;;2.35;1.90;;;;;;;23.87;100.00;100271.81;4987570;28;20053;-75
2023/08/24 01:35:56;;;;;;;2.65;1.15;;;;;;;24.31;100.00;100358.69;4982292;28;20050;-76
2023/08/24 01:38:22;;;;;;;3.67;2.35;;;;;;;24.36;100.00;100376.22;4988929;28;20026;-76
2023/08/24 01:41:11;;;;;;;0.75;0.75;;;;;;;24.37;100.00;100371.72;4977682;28;20077;-75
2023/08/24 01:43:39;;;;;;;0.45;0.45;;;;;;;24.22;100.00;100346.66;4980950;28;20038;-74
2023/08/24 01:46:07;;;;;;;1.45;1.05;;;;;;;24.13;100.00;100341.81;4985894;28;20130;-74
2023/08/24 01:48:32;;;;;;;2.45;1.88;;;;;;;24.29;100.00;100382.03;4980843;28;20046;-75
2023/08/24 01:50:59;;;;;;;1.02;0.75;;;;;;;23.72;100.00;100296.78;4986060;28;20053;-74
2023/08/24 01:53:27;;;;;;;1.15;1.05;;;;;;;24.02;100.00;100355.81;4982387;28;20053;-74
2023/08/24 01:55:53;;;;;;;4.43;1.58;;;;;;;23.51;100.00;100259.53;5013401;28;20468;-76
2023/08/24 01:58:19;;;;;;;1.85;1.75;;;;;;;23.55;100.00;100277.16;4986073;28;20117;-76
2023/08/24 02:00:45;;;;;;;2.22;1.67;;;;;;;24.05;100.00;100387.00;4984565;28;20038;-76
2023/08/24 02:03:10;;;;;;;2.00;1.50;;;;;;;23.77;100.00;100332.25;4986774;28;20054;-75
2023/08/24 02:05:36;;;;;;;0.28;0.28;;;;;;;23.63;100.00;100310.69;4987068;28;20034;-75
2023/08/24 02:08:01;;;;;;;5.45;2.38;;;;;;;23.93;100.00;100375.16;4977747;28;20471;-75
2023/08/24 02:10:27;;;;;;;2.00;1.75;;;;;;;23.79;100.00;100315.13;4985421;28;20125;-76
2023/08/24 02:12:53;;;;;;;3.10;2.38;;;;;;;24.05;100.00;100381.63;4984489;28;20052;-75
2023/08/24 02:15:18;;;;;;;1.38;1.27;;;;;;;23.70;100.00;100330.84;4984938;28;20047;-75
2023/08/24 02:17:44;;;;;;;1.20;0.90;;;;;;;23.46;100.00;100295.53;4984364;28;20713;-74
2023/08/24 02:20:11;;;;;;;1.73;1.40;;;;;;;23.70;100.00;100350.44;4987502;28;20052;-75
2023/08/24 02:22:37;;;;;;;1.70;1.60;;;;;;;23.87;100.00;100379.00;4984153;28;20053;-75
2023/08/24 02:25:04;;;;;;;1.27;1.23;;;;;;;23.85;100.00;100374.69;4983076;28;20054;-74
2023/08/24 02:27:31;;;;;;;1.65;1.55;;;;;;;23.24;100.00;100279.81;4985024;28;20140;-74
2023/08/24 02:29:56;;;;;;;4.47;2.55;;;;;;;23.36;100.00;100298.72;4986123;28;20043;-75
2023/08/24 02:32:22;;;;;;;1.50;1.40;;;;;;;23.79;100.00;100362.50;4984737;28;20034;-75
2023/08/24 02:34:47;;;;;;;2.25;2.05;;;;;;;22.94;100.00;100238.56;4986254;28;20065;-75
2023/08/24 02:37:13;;;;;;;1.85;1.42;;;;;;;23.25;100.00;100305.63;4981184;28;20046;-75
2023/08/24 02:39:38;;;;;;;2.55;1.58;;;;;;;23.69;100.00;100396.94;4986458;28;20034;-75
2023/08/24 02:42:04;;;;;;;3.17;2.05;;;;;;;23.24;100.00;100342.25;4984796;28;20046;-75
2023/08/24 02:44:29;;;;;;;2.08;1.88;;;;;;;23.45;100.00;100383.06;4985408;28;20069;-75
2023/08/24 02:46:55;;;;;;;4.13;2.22;;;;;;;23.45;100.00;100401.81;4982068;28;20048;-74
2023/08/24 02:49:20;;;;;;;1.70;1.55;;;;;;;23.33;100.00;100384.59;4981001;28;20063;-75
2023/08/24 02:51:46;;;;;;;1.73;1.63;;;;;;;23.46;100.00;100400.88;4978638;28;20465;-74
2023/08/24 02:54:12;;;;;;;4.65;3.17;;;;;;;23.49;100.00;100408.75;4985060;28;20046;-75
2023/08/24 02:56:37;;;;;;;4.43;3.40;;;;;;;22.84;100.00;100306.00;4984402;28;20046;-74
2023/08/24 02:59:03;;;;;;;1.42;0.98;;;;;;;23.27;100.00;100366.19;4985499;28;20367;-74
2023/08/24 03:01:29;;;;;;;1.27;1.08;;;;;;;23.48;100.00;100414.19;4981720;28;20125;-75
2023/08/24 03:03:54;;;;;;;2.25;2.05;;;;;;;22.73;100.00;100307.44;4980303;28;20042;-74
2023/08/24 03:06:20;;;;;;;1.25;0.75;;;;;;;23.20;100.00;100396.03;4986067;28;20042;-74
2023/08/24 03:08:45;;;;;;;2.13;1.50;;;;;;;23.03;100.00;100378.19;4985977;28;20041;-75
2023/08/24 03:11:10;;;;;;;2.53;2.33;;;;;;;23.11;100.00;100387.56;4984187;28;20782;-75
2023/08/24 03:13:40;;;;;;;2.50;2.30;;;;;;;22.75;100.00;100310.88;4985090;28;20074;-75
2023/08/24 03:16:06;;;;;;;5.20;2.05;;;;;;;23.23;100.00;100418.16;4981481;28;20054;-76
2023/08/24 03:18:31;;;;;;;1.38;1.13;;;;;;;23.29;100.00;100419.66;4978801;28;20046;-76
2023/08/24 03:20:58;;;;;;;4.03;3.33;;;;;;;22.67;100.00;100325.63;4977810;28;20251;-75
2023/08/24 03:23:23;;;;;;;6.45;2.22;;;;;;;23.23;100.00;100418.16;4980657;28;20092;-76
2023/08/24 03:25:49;;;;;;;5.47;4.97;;;;;;;22.76;100.00;100347.41;4984553;28;20046;-76
2023/08/24 03:28:14;;;;;;;2.58;2.38;;;;;;;22.64;100.00;100326.66;4983007;28;20058;-76
2023/08/24 03:30:46;;;;;;;5.03;3.42;;;;;;;22.85;100.00;100340.72;4979819;28;20046;-74
2023/08/24 03:33:11;;;;;;;2.55;2.35;;;;;;;22.99;100.00;100353.38;4976736;28;20062;-75
2023/08/24 03:35:37;;;;;;;4.05;3.70;;;;;;;22.98;100.00;100343.59;4985223;28;20116;-74
2023/08/24 03:38:03;;;;;;;1.05;0.95;;;;;;;23.58;100.00;100443.06;4983247;28;20038;-74
2023/08/24 03:40:30;;;;;;;3.80;3.20;;;;;;;23.14;100.00;100371.31;4985486;28;20050;-75
2023/08/24 03:42:55;;;;;;;3.42;3.13;;;;;;;23.02;100.00;100345.22;4984232;28;20324;-75
2023/08/24 03:45:22;;;;;;;1.88;1.77;;;;;;;22.51;100.00;100282.75;4980465;28;20657;-73
2023/08/24 03:47:47;;;;;;;3.72;3.35;;;;;;;22.96;100.00;100367.75;4975910;28;20122;-75
2023/08/24 03:50:13;;;;;;;2.15;1.83;;;;;;;23.53;100.00;100442.47;4984928;28;20608;-74
2023/08/24 03:52:39;;;;;;;1.40;1.25;;;;;;;23.56;100.00;100433.41;4980996;28;20419;-74
2023/08/24 03:55:06;;;;;;;1.95;1.77;;;;;;;23.41;100.00;100427.03;4983195;28;20054;-75
2023/08/24 03:57:31;;;;;;;1.83;1.73;;;;;;;23.60;100.00;100437.66;4989279;28;20141;-74
2023/08/24 03:59:57;;;;;;;2.65;1.88;;;;;;;23.56;100.00;100452.16;4983642;28;20053;-75
2023/08/24 04:02:23;;;;;;;7.45;3.15;;;;;;;23.60;100.00;100454.59;4988949;28;20034;-75
2023/08/24 04:04:50;;;;;;;2.25;2.10;;;;;;;23.58;100.00;100435.03;4987378;28;20681;-73
2023/08/24 04:07:16;;;;;;;3.97;2.08;;;;;;;22.96;100.00;100348.16;4982384;28;20108;-73
2023/08/24 04:09:41;;;;;;;1.42;1.33;;;;;;;23.58;100.00;100439.53;4987313;28;20482;-74
2023/08/24 04:12:07;;;;;;;1.05;1.00;;;;;;;23.53;100.00;100454.97;4987290;28;20051;-75
2023/08/24 04:14:33;;;;;;;1.33;1.23;;;;;;;23.51;100.00;100467.59;4984819;28;20137;-75
2023/08/24 04:16:58;;;;;;;2.60;2.40;;;;;;;22.88;100.00;100347.72;4987492;28;20031;-74
2023/08/24 04:19:24;;;;;;;1.65;1.55;;;;;;;23.53;100.00;100441.56;4989042;28;20149;-74
2023/08/24 04:21:50;;;;;;;2.67;2.45;;;;;;;23.38;100.00;100414.66;4984212;28;20054;-74
2023/08/24 04:24:16;;;;;;;1.45;1.35;;;;;;;23.55;100.00;100440.56;4985179;28;20504;-75
2023/08/24 04:26:41;;;;;;;0.93;0.93;;;;;;;23.68;100.00;100440.75;4989056;28;20077;-75
2023/08/24 04:29:07;;;;;;;2.38;2.17;;;;;;;23.63;100.00;100447.34;4983398;28;20038;-74
2023/08/24 04:31:32;;;;;;;0.93;0.75;;;;;;;23.59;100.00;100411.78;5018336;28;20486;-75
2023/08/24 04:33:58;;;;;;;1.45;1.35;;;;;;;23.30;100.00;100357.13;4988904;28;20417;-74
2023/08/24 04:36:23;;;;;;;1.27;1.17;;;;;;;23.01;100.00;100340.78;4988396;28;20053;-73
2023/08/24 04:38:49;;;;;;;2.85;2.17;;;;;;;23.24;100.00;100378.88;4987919;28;20054;-74
2023/08/24 04:41:14;;;;;;;4.95;4.55;;;;;;;23.70;100.00;100421.94;4987539;28;20109;-75
2023/08/24 04:43:40;;;;;;;2.35;2.15;;;;;;;23.62;100.00;100405.41;4985144;28;20054;-75
2023/08/24 04:46:05;;;;;;;1.90;1.70;;;;;;;23.86;100.00;100424.66;4986596;28;20065;-74
2023/08/24 04:48:34;;;;;;;2.53;2.33;;;;;;;23.47;100.00;100359.75;4987697;28;20042;-75
2023/08/24 04:51:01;;;;;;;1.92;1.80;;;;;;;24.05;100.00;100440.59;4985836;28;20034;-74
2023/08/24 04:53:26;;;;;;;1.42;1.08;;;;;;;23.62;100.00;100346.47;4983614;28;20516;-74
2023/08/24 04:55:52;;;;;;;0.75;0.73;;;;;;;24.26;100.00;100444.75;4983632;28;20054;-73
2023/08/24 04:58:19;;;;;;;1.58;1.38;;;;;;;24.43;100.00;100441.09;4986412;28;20047;-74
2023/08/24 05:00:45;;;;;;;0.80;0.80;;;;;;;23.48;100.00;100265.03;4980416;28;20054;-74
2023/08/24 05:03:11;;;;;;;0.77;0.77;;;;;;;24.12;100.00;100342.78;4983265;28;20421;-74
2023/08/24 05:05:37;;;;;;;1.70;1.33;;;;;;;24.67;100.00;100427.25;4987493;28;20069;-74
2023/08/24 05:08:11;;;;;;;2.22;2.00;;;;;;;24.78;100.00;100406.88;4988473;28;20053;-73
2023/08/24 05:10:38;;;;;;;1.13;1.00;;;;;;;25.23;100.00;100436.47;4984653;28;20045;-74
2023/08/24 05:13:04;;;;;;;2.38;1.75;;;;;;;24.81;100.00;100336.06;4987377;28;20038;-75
2023/08/24 05:15:29;;;;;;;0.82;0.75;;;;;;;25.00;100.00;100351.91;4982743;28;20052;-74
2023/08/24 05:17:56;;;;;;;1.85;1.75;;;;;;;25.40;100.00;100414.81;4987015;28;20129;-76
2023/08/24 05:20:28;;;;;;;1.23;1.13;;;;;;;25.92;100.00;100447.47;4985888;28;20026;-73
2023/08/24 05:22:57;;;;;;;2.22;0.88;;;;;;;25.68;100.00;100396.94;4981919;28;20050;-73
2023/08/24 05:25:23;;;;;;;0.77;0.77;;;;;;;25.99;100.00;100467.63;4977507;28;20824;-74
2023/08/24 05:27:48;;;;;;;1.17;1.00;;;;;;;25.97;100.00;100435.47;4985961;28;20053;-76
2023/08/24 05:30:14;;;;;;;3.67;2.70;;;;;;;25.64;100.00;100379.31;4982509;28;20133;-73
2023/08/24 05:32:40;;;;;;;0.55;0.55;;;;;;;25.59;100.00;100381.41;4981090;28;20873;-74
2023/08/24 05:35:06;;;;;;;0.70;0.65;;;;;;;25.45;100.00;100393.00;5011132;28;20040;-76
2023/08/24 05:37:32;;;;;;;2.92;1.85;;;;;;;26.02;100.00;100459.38;4987828;28;20188;-75
2023/08/24 05:39:59;;;;;;;1.42;1.33;;;;;;;25.41;100.00;100357.44;4976273;28;20132;-75
2023/08/24 05:42:25;;;;;;;1.05;0.95;;;;;;;26.05;100.00;100469.94;4978279;28;20157;-76
2023/08/24 05:44:51;;;;;;;0.93;0.82;;;;;;;26.14;100.00;100474.72;4977961;28;20527;-80
2023/08/24 05:47:16;;;;;;;1.05;0.95;;;;;;;25.90;100.00;100458.34;4981149;28;20040;-74
2023/08/24 05:49:42;;;;;;;0.88;0.85;;;;;;;25.68;100.00;100396.94;4982980;28;20084;-75
2023/08/24 05:52:08;;;;;;;1.40;1.30;;;;;;;26.32;100.00;100475.38;4979353;28;20484;-75
2023/08/24 05:54:33;;;;;;;0.70;0.65;;;;;;;26.42;100.00;100487.25;4978282;28;20059;-75
2023/08/24 05:57:00;;;;;;;4.72;2.92;;;;;;;26.62;100.00;100480.63;4985301;28;20149;-75
2023/08/24 05:59:26;;;;;;;2.28;2.05;;;;;;;26.25;100.00;100468.66;4984290;28;20038;-75
2023/08/24 06:01:52;;;;;;;0.70;0.70;;;;;;;26.88;100.00;100484.25;4983847;28;20137;-76
2023/08/24 06:04:17;;;;;;;1.17;1.17;;;;;;;27.09;100.00;100416.41;4983104;28;20144;-75
2023/08/24 06:06:43;;;;;;;1.75;1.48;;;;;;;27.32;100.00;100490.31;4978505;28;20122;-76
2023/08/24 06:09:09;;;;;;;0.98;0.90;;;;;;;26.73;100.00;100393.72;4985978;28;20043;-75
2023/08/24 06:11:35;;;;;;;0.20;0.20;;;;;;;27.61;100.00;100445.16;4985708;28;20339;-76
2023/08/24 06:14:01;;;;;;;0.57;0.57;;;;;;;27.51;100.00;100396.44;4986725;28;20124;-76
2023/08/24 06:16:28;;;;;;;2.45;2.30;;;;;;;27.75;100.00;100490.03;5017809;28;20145;-75
2023/08/24 06:18:53;;;;;;;2.25;2.15;;;;;;;27.45;100.00;100466.06;4985776;28;20122;-75
2023/08/24 06:21:19;;;;;;;0.63;0.63;;;;;;;27.68;100.00;100470.72;4985918;28;20069;-74
2023/08/24 06:23:44;;;;;;;1.20;1.10;;;;;;;28.38;100.00;100491.78;4984576;28;20546;-79
2023/08/24 06:26:10;;;;;;;1.15;1.13;;;;;;;27.70;100.00;100397.81;4987358;28;20426;-75
2023/08/24 06:28:36;;;;;;;1.98;1.88;;;;;;;28.26;100.00;100462.13;4984336;28;20109;-76
2023/08/24 06:31:01;;;;;;;0.50;0.40;;;;;;;27.90;100.00;100488.94;4978249;28;20498;-75
2023/08/24 06:33:31;;;;;;;1.75;0.95;;;;;;;27.66;100.00;100480.75;4984259;28;20058;-75
2023/08/24 06:35:57;;;;;;;0.85;0.85;;;;;;;27.29;100.00;100491.38;5006275;28;20054;-74
2023/08/24 06:38:22;;;;;;;1.80;1.70;;;;;;;27.34;100.00;100489.22;4986453;28;20115;-76
2023/08/24 06:40:48;;;;;;;0.68;0.68;;;;;;;27.40;100.00;100468.22;4986091;28;20042;-77
2023/08/24 06:43:14;;;;;;;2.17;1.88;;;;;;;27.77;100.00;100474.59;5015154;28;20153;-75
2023/08/24 06:45:44;;;;;;;0.65;0.43;;;;;;;27.38;100.00;100513.28;4980536;28;20054;-75
2023/08/24 06:48:09;;;;;;;1.05;0.95;;;;;;;27.52;100.00;100491.63;4983825;28;20065;-75
2023/08/24 06:50:36;;;;;;;0.77;0.75;;;;;;;27.13;100.00;100407.16;4983408;28;20074;-74
2023/08/24 06:53:03;;;;;;;2.25;1.85;;;;;;;27.39;100.00;100401.81;4985068;28;20026;-75
2023/08/24 06:55:28;;;;;;;2.35;1.08;;;;;;;27.58;100.00;100413.00;4987011;28;20095;-75
2023/08/24 06:57:54;;;;;;;0.40;0.30;;;;;;;27.66;100.00;100415.19;4985645;28;20474;-75
2023/08/24 07:00:20;;;;;;;1.02;1.00;;;;;;;27.81;100.00;100405.97;4984263;28;20051;-75
2023/08/24 07:02:47;;;;;;;1.15;1.10;;;;;;;28.13;100.00;100483.75;4979443;28;20150;-74
2023/08/24 07:05:12;;;;;;;0.73;0.73;;;;;;;27.91;100.00;100420.56;4986244;28;20109;-72
2023/08/24 07:07:38;;;;;;;0.60;0.60;;;;;;;27.99;100.00;100401.97;4983012;28;20095;-75
2023/08/24 07:10:04;;;;;;;2.28;1.77;;;;;;;28.43;100.00;100494.13;4980914;28;20081;-74
2023/08/24 07:12:29;;;;;;;2.60;0.55;;;;;;;27.96;100.00;100495.75;4983399;28;20042;-74
2023/08/24 07:14:55;;;;;;;1.25;1.17;;;;;;;28.27;100.00;100498.94;4984462;28;20054;-72
2023/08/24 07:17:20;;;;;;;0.40;0.40;;;;;;;27.63;100.00;100331.78;4984010;28;20104;-73
2023/08/24 07:19:46;;;;;;;0.60;0.60;;;;;;;28.56;100.00;100461.72;4982885;28;20491;-74
2023/08/24 07:22:11;;;;;;;1.25;1.10;;;;;;;28.66;100.00;100445.69;4981141;28;20062;-74
2023/08/24 07:24:37;;;;;;;0.32;0.22;;;;;;;27.98;100.00;100399.41;4980635;28;20426;-75
2023/08/24 07:27:04;;;;;;;0.57;0.57;;;;;;;28.52;100.00;100501.59;4981327;28;20138;-75
2023/08/24 07:29:29;;;;;;;1.70;1.08;;;;;;;27.74;100.00;100410.06;4985913;28;20038;-75
2023/08/24 07:31:55;;;;;;;0.80;0.65;;;;;;;28.21;100.00;100497.53;4980241;28;20064;-73
2023/08/24 07:34:22;;;;;;;2.30;1.85;;;;;;;27.64;100.00;100401.78;4982560;28;20062;-73
2023/08/24 07:36:48;;;;;;;1.25;1.15;;;;;;;28.07;100.00;100490.44;4984789;28;20058;-74
2023/08/24 07:39:15;;;;;;;0.30;0.30;;;;;;;27.23;100.00;100286.16;4985302;28;20550;-74
2023/08/24 07:41:41;;;;;;;1.15;0.90;;;;;;;28.57;100.00;100431.06;4984893;28;20052;-75
2023/08/24 07:44:07;;;;;;;1.15;1.13;;;;;;;28.67;100.00;100485.22;4985945;28;20023;-74
2023/08/24 07:46:32;;;;;;;1.52;1.27;;;;;;;28.27;100.00;100418.81;4979632;28;20050;-74
2023/08/24 07:48:58;;;;;;;2.03;1.05;;;;;;;28.58;100.00;100416.56;4982525;28;20146;-73
2023/08/24 07:51:23;;;;;;;0.80;0.80;;;;;;;28.90;100.00;100486.19;4985539;28;20057;-73
2023/08/24 07:53:52;;;;;;;1.02;0.98;;;;;;;28.49;100.00;100393.81;4984157;28;20074;-73
2023/08/24 07:56:18;;;;;;;2.83;1.85;;;;;;;29.03;99.83;100481.56;4979822;28;20078;-73
2023/08/24 07:58:44;;;;;;;0.82;0.75;;;;;;;28.67;98.71;100421.28;4984563;28;20046;-74
2023/08/24 08:01:10;;;;;;;0.32;0.32;;;;;;;29.16;97.93;100485.09;4984259;28;20066;-75
2023/08/24 08:03:35;;;;;;;1.10;1.00;;;;;;;28.26;99.07;100394.63;4984652;28;20043;-75
2023/08/24 08:06:02;;;;;;;3.38;1.48;;;;;;;28.78;97.35;100437.53;4982444;28;20057;-75
2023/08/24 08:08:27;;;;;;;0.50;0.50;;;;;;;28.48;94.71;100400.19;4985814;28;20034;-77
2023/08/24 08:11:01;;;;;;;0.88;0.80;;;;;;;29.18;93.04;100485.84;4985971;28;20671;-75
2023/08/24 08:13:27;;;;;;;0.70;0.70;;;;;;;29.38;89.00;100464.50;4976230;28;20124;-74
2023/08/24 08:15:53;;;;;;;1.40;1.30;;;;;;;29.22;86.72;100416.19;4979262;28;20090;-76
2023/08/24 08:18:19;;;;;;;2.45;1.85;;;;;;;29.36;87.55;100424.09;5011881;28;20069;-75
2023/08/24 08:20:44;;;;;;;0.90;0.85;;;;;;;29.18;84.14;100482.28;4983784;28;20038;-75
2023/08/24 08:23:10;;;;;;;1.52;1.38;;;;;;;28.97;84.89;100403.72;4979053;28;20570;-75
2023/08/24 08:25:35;;;;;;;0.50;0.45;;;;;;;29.67;86.37;100486.59;4985789;28;20101;-76
2023/08/24 08:28:01;;;;;;;1.88;1.77;;;;;;;29.27;84.56;100386.09;5011145;28;20042;-75
2023/08/24 08:30:26;;;;;;;1.67;1.58;;;;;;;29.85;83.74;100487.84;4982787;28;20039;-75
2023/08/24 08:32:52;;;;;;;1.58;1.48;;;;;;;29.09;83.37;100386.56;4983342;28;20039;-74
2023/08/24 08:35:18;;;;;;;0.43;0.43;;;;;;;29.38;84.17;100481.59;5015560;28;20680;-75
2023/08/24 08:37:44;;;;;;;1.25;1.20;;;;;;;29.57;84.36;100459.41;4985587;28;20145;-75
2023/08/24 08:40:11;;;;;;;1.67;1.58;;;;;;;29.39;84.36;100380.59;4984154;28;20096;-76
2023/08/24 08:42:37;;;;;;;0.52;0.52;;;;;;;29.98;82.45;100448.97;4983426;28;20157;-75
2023/08/24 08:45:07;;;;;;;0.68;0.68;;;;;;;29.72;80.77;100386.16;4985760;28;20125;-75
2023/08/24 08:47:33;;;;;;;0.25;0.25;;;;;;;29.34;80.58;100381.94;4989956;28;20053;-75
2023/08/24 08:50:02;;;;;;;0.30;0.30;;;;;;;29.95;80.78;100452.78;4987082;28;20038;-75
2023/08/24 08:52:28;;;;;;;1.15;1.05;;;;;;;30.14;79.51;100444.03;4988201;28;20085;-74
2023/08/24 08:54:53;;;;;;;0.77;0.77;;;;;;;30.43;77.35;100455.19;4986038;28;20050;-75
2023/08/24 08:57:22;;;;;;;0.82;0.82;;;;;;;30.48;74.39;100449.41;4988603;28;20773;-74
2023/08/24 08:59:50;;;;;;;1.27;1.17;;;;;;;30.62;73.83;100454.53;4984092;28;20482;-76
2023/08/24 09:02:19;;;;;;;0.50;0.50;;;;;;;30.26;73.00;100425.97;4992799;28;20076;-77
2023/08/24 09:04:45;;;;;;;1.58;1.15;;;;;;;29.96;72.63;100367.91;4987705;28;20078;-77
2023/08/24 09:07:13;;;;;;;1.48;0.93;;;;;;;30.13;73.87;100406.25;4986788;28;20601;-77
2023/08/24 09:09:39;;;;;;;101.07;77.78;;;;;;;30.11;76.07;100387.47;4982677;28;20129;-72
2023/08/24 09:12:08;;;;;;;52.08;44.55;;;;;;;30.53;73.18;100443.59;4987524;28;20228;-71
2023/08/24 09:14:34;;;;;;;185.23;145.48;;;;;;;30.57;71.90;100436.94;4986600;28;20034;-71
2023/08/24 09:16:59;;;;;;;130.02;99.55;;;;;;;30.61;71.43;100435.72;4983386;28;20506;-70
2023/08/24 09:19:32;;;;;;;85.03;63.42;;;;;;;30.40;69.97;100366.09;4988113;28;20046;-70
2023/08/24 09:21:58;;;;;;;;;;;;;;;31.12;69.72;100443.16;4987759;28;20055;-76
2023/08/24 09:24:34;;;;;;;11.40;8.77;;;;;;;30.90;68.19;100365.50;4977446;28;19944;-76
2023/08/24 09:27:13;;;;;;;2.28;1.30;;;;;;;31.46;63.99;100427.53;4982907;28;20046;-78
2023/08/24 09:29:39;;;;;;;4.88;1.48;;;;;;;31.54;62.81;100427.72;4986570;28;20549;-77
2023/08/24 09:32:08;;;;;;;4.60;3.30;;;;;;;31.74;64.48;100439.50;4988718;28;20114;-79
2023/08/24 09:34:33;;;;;;;1.67;1.58;;;;;;;31.81;64.46;100407.25;4980813;28;20400;-78
2023/08/24 09:36:59;;;;;;;1.55;1.45;;;;;;;31.70;63.89;100429.06;4984084;28;20037;-75
2023/08/24 09:39:24;;;;;;;0.80;0.68;;;;;;;31.54;63.33;100342.78;4987372;28;20105;-76
2023/08/24 09:41:50;;;;;;;1.08;0.98;;;;;;;31.69;61.99;100338.66;4983398;28;20046;-78
2023/08/24 09:44:19;;;;;;;1.45;1.35;;;;;;;31.90;61.52;100337.72;4985928;28;20068;-78
2023/08/24 09:46:45;;;;;;;1.00;0.90;;;;;;;32.04;61.16;100412.53;4987341;28;20052;-77
2023/08/24 09:49:12;;;;;;;1.75;1.50;;;;;;;31.95;60.56;100328.19;4987288;28;20043;-77
2023/08/24 09:51:41;;;;;;;1.45;1.15;;;;;;;33.08;59.48;100385.72;4985565;28;20074;-77
2023/08/24 09:54:09;;;;;;;0.22;0.22;;;;;;;33.01;56.88;100377.25;4983526;28;20115;-77
2023/08/24 09:56:37;;;;;;;0.45;0.45;;;;;;;32.68;56.81;100332.38;4981583;28;20549;-76
2023/08/24 09:59:27;;;;;;;1.50;1.40;;;;;;;32.72;57.19;100409.91;4987580;28;20034;-77
2023/08/24 10:01:56;;;;;;;1.42;1.33;;;;;;;33.01;57.08;100408.03;4982173;28;20069;-75
2023/08/24 10:04:28;;;;;;;1.73;1.40;;;;;;;32.77;56.09;100397.59;4985348;28;20108;-69
2023/08/24 10:07:07;;;;;;;20.10;12.98;;;;;;;32.67;58.31;100406.78;4981199;28;20050;-71
2023/08/24 10:09:43;;;;;;;19.27;17.40;;;;;;;32.78;56.50;100355.00;4980661;28;20053;-71
2023/08/24 10:12:10;;;;;;;3.25;2.95;;;;;;;32.76;55.19;100392.34;4981599;28;20445;-72
2023/08/24 10:14:56;;;;;;;8.43;7.43;;;;;;;32.83;55.71;100316.47;4986315;28;20132;-71
2023/08/24 10:17:23;;;;;;;10.80;9.40;;;;;;;33.73;54.57;100315.03;4987380;28;20026;-72
2023/08/24 10:19:51;;;;;;;11.40;9.10;;;;;;;33.71;54.98;100380.50;4981347;28;20495;-72
2023/08/24 10:22:20;;;;;;;16.25;10.73;;;;;;;33.21;54.41;100301.97;4986115;28;20084;-73
2023/08/24 10:24:51;;;;;;;3.25;2.97;;;;;;;33.34;54.47;100323.38;4979054;28;20050;-71
2023/08/24 10:27:17;;;;;;;6.78;3.25;;;;;;;32.95;53.34;100301.72;4981284;28;20860;-71
2023/08/24 10:29:43;;;;;;;2.00;1.85;;;;;;;33.27;54.05;100371.22;4985215;28;20034;-71
2023/08/24 10:32:09;;;;;;;4.15;3.63;;;;;;;33.43;54.64;100361.44;4983464;28;20406;-71
2023/08/24 10:34:35;;;;;;;2.50;2.33;;;;;;;33.66;54.67;100352.06;4989529;28;20525;-71
2023/08/24 10:37:10;;;;;;;5.28;4.80;;;;;;;34.32;52.62;100351.78;4983392;28;20055;-70
2023/08/24 10:39:38;;;;;;;2.80;2.65;;;;;;;34.40;52.44;100346.41;4982281;28;20050;-70
2023/08/24 10:42:03;;;;;;;3.17;2.17;;;;;;;34.43;50.87;100279.84;4985775;28;20086;-70
2023/08/24 10:44:39;;;;;;;0.47;0.47;;;;;;;33.95;51.94;100335.53;4985699;28;20038;-69
2023/08/24 10:47:15;;;;;;;8.25;7.43;;;;;;;33.35;52.65;100295.16;4988648;28;20030;-72
2023/08/24 10:49:42;;;;;;;1.52;1.42;;;;;;;33.85;51.60;100273.81;4985155;28;20054;-71
2023/08/24 10:52:39;;;;;;;0.93;0.93;;;;;;;33.80;52.27;100341.50;4985375;28;20149;-71
2023/08/24 10:55:21;;;;;;;1.23;1.15;;;;;;;34.05;51.50;100330.91;4977603;28;20514;-72
2023/08/24 10:58:02;;;;;;;3.25;3.03;;;;;;;33.86;51.04;100334.59;4976437;28;20529;-71
2023/08/24 11:00:30;;;;;;;0.88;0.88;;;;;;;34.44;50.24;100327.88;4982628;28;20050;-73
2023/08/24 11:02:57;;;;;;;3.58;3.10;;;;;;;35.00;50.29;100320.31;4981169;28;20042;-72
2023/08/24 11:05:30;;;;;;;5.78;5.20;;;;;;;34.53;48.50;100244.31;4979228;28;20113;-70
2023/08/24 11:07:57;;;;;;;2.00;1.90;;;;;;;34.29;48.89;100259.47;4986119;28;20100;-83
2023/08/24 11:10:43;;;;;;;5.35;1.73;;;;;;;34.08;49.67;100316.09;4980634;28;20038;-84
2023/08/24 11:13:15;;;;;;;1.45;1.33;;;;;;;34.74;49.88;100314.88;4984152;28;20058;-80
2023/08/24 11:15:41;;;;;;;;;;;;;;;34.75;49.68;100313.88;4980119;28;20581;-81
2023/08/24 11:18:21;;;;;;;4.55;4.22;;;;;;;32.16;57.27;100309.06;4978663;28;19937;-79
2023/08/24 11:21:00;;;;;;;2.22;2.03;;;;;;;31.73;58.63;100302.13;4960799;28;20086;-84